createdAt,value
2022-09-30T00:02:02.217Z,12.47
2022-09-30T00:07:07.917Z,12.51
2022-09-30T00:12:12.151Z,12.78
2022-09-30T00:17:16.313Z,13.66
2022-09-30T00:22:22.066Z,13.09
2022-09-30T00:27:26.260Z,13.60
2022-09-30T00:32:30.419Z,13.40
2022-09-30T00:37:36.444Z,12.75
2022-09-30T00:42:42.137Z,12.77
2022-09-30T00:47:53.731Z,13.08
2022-09-30T00:53:06.501Z,13.22
2022-09-30T00:58:13.747Z,12.27
2022-09-30T01:03:18.759Z,12.44
2022-09-30T01:08:25.886Z,12.71
2022-09-30T01:13:32.191Z,12.58
2022-09-30T01:18:51.098Z,12.71
2022-09-30T01:24:15.228Z,12.64
2022-09-30T01:30:02.168Z,12.90
2022-09-30T01:35:18.677Z,13.56
2022-09-30T01:40:25.962Z,13.29
2022-09-30T01:45:36.580Z,13.75
2022-09-30T01:50:51.482Z,13.00
2022-09-30T01:56:01.293Z,12.00
2022-09-30T02:01:11.588Z,12.41
2022-09-30T02:06:21.144Z,12.51
2022-09-30T02:11:28.504Z,13.12
2022-09-30T02:16:40.121Z,12.92
2022-09-30T02:21:49.533Z,12.89
2022-09-30T02:26:56.941Z,12.71
2022-09-30T02:32:06.675Z,12.71
2022-09-30T02:37:17.520Z,12.75
2022-09-30T02:42:27.546Z,13.48
2022-09-30T02:47:41.445Z,12.74
2022-09-30T02:53:02.200Z,12.38
2022-09-30T02:58:12.980Z,11.88
2022-09-30T03:03:21.748Z,12.64
2022-09-30T03:08:27.676Z,11.82
2022-09-30T03:14:16.180Z,12.23
2022-09-30T03:19:40.493Z,12.74
2022-09-30T03:25:01.836Z,12.69
2022-09-30T03:30:09.030Z,12.87
2022-09-30T03:35:21.340Z,12.69
2022-09-30T03:40:34.053Z,12.46
2022-09-30T03:45:43.177Z,12.76
2022-09-30T03:50:47.542Z,13.47
2022-09-30T03:55:54.187Z,12.90
2022-09-30T04:00:59.149Z,12.87
2022-09-30T04:06:03.329Z,12.59
2022-09-30T04:11:08.772Z,12.77
2022-09-30T04:16:12.905Z,12.70
2022-09-30T04:21:18.487Z,12.43
2022-09-30T04:26:23.801Z,12.30
2022-09-30T04:31:30.387Z,12.80
2022-09-30T04:36:34.723Z,11.70
2022-09-30T04:41:40.993Z,12.20
2022-09-30T04:46:44.978Z,12.61
2022-09-30T04:51:49.783Z,12.07
2022-09-30T04:56:55.266Z,11.43
2022-09-30T05:01:59.679Z,11.88
2022-09-30T05:07:06.604Z,12.28
2022-09-30T05:12:12.442Z,12.95
2022-09-30T05:17:16.682Z,12.47
2022-09-30T05:22:20.574Z,12.50
2022-09-30T05:27:26.474Z,12.31
2022-09-30T05:32:31.801Z,12.44
2022-09-30T05:37:35.777Z,12.61
2022-09-30T05:42:41.194Z,13.01
2022-09-30T05:47:45.066Z,13.01
2022-09-30T05:52:49.621Z,13.47
2022-09-30T05:57:55.137Z,13.04
2022-09-30T06:02:59.155Z,12.92
2022-09-30T06:08:03.773Z,12.70
2022-09-30T06:13:09.482Z,12.59
2022-09-30T06:18:17.649Z,12.54
2022-09-30T06:23:22.037Z,12.54
2022-09-30T06:28:27.630Z,12.50
2022-09-30T06:33:32.082Z,12.39
2022-09-30T06:38:38.301Z,12.62
2022-09-30T06:43:46.478Z,12.07
2022-09-30T06:49:10.013Z,12.71
2022-09-30T06:54:16.365Z,12.53
2022-09-30T06:59:21.520Z,12.38
2022-09-30T07:04:25.402Z,12.82
2022-09-30T07:09:29.404Z,12.91
2022-09-30T07:14:41.093Z,12.82
2022-09-30T07:19:45.157Z,13.09
2022-09-30T07:24:49.109Z,13.24
2022-09-30T07:30:09.290Z,13.92
2022-09-30T07:35:15.404Z,14.15
2022-09-30T07:40:19.637Z,14.37
2022-09-30T07:45:25.445Z,15.00
2022-09-30T07:50:29.385Z,14.82
2022-09-30T07:55:33.226Z,14.82
2022-09-30T08:00:42.601Z,14.90
2022-09-30T08:05:48.614Z,15.66
2022-09-30T08:10:52.543Z,15.51
2022-09-30T08:16:00.864Z,15.75
2022-09-30T08:21:06.446Z,15.48
2022-09-30T08:26:11.955Z,15.77
2022-09-30T08:31:19.515Z,16.00
2022-09-30T08:36:25.562Z,15.93
2022-09-30T08:41:52.390Z,15.97
2022-09-30T08:47:03.837Z,15.83
2022-09-30T08:52:24.621Z,15.58
2022-09-30T09:04:41.641Z,14.81
2022-09-30T09:09:53.468Z,14.16
2022-09-30T09:15:12.423Z,14.34
2022-09-30T09:20:20.376Z,14.27
2022-09-30T09:25:29.078Z,14.68
2022-09-30T09:30:39.445Z,14.59
2022-09-30T09:35:51.408Z,14.55
2022-09-30T09:41:06.368Z,14.61
2022-09-30T09:46:16.552Z,14.32
2022-09-30T09:51:29.298Z,14.43
2022-09-30T09:56:34.681Z,14.55
2022-09-30T10:01:40.904Z,14.47
2022-09-30T10:06:53.062Z,14.35
2022-09-30T10:12:30.402Z,14.23
2022-09-30T10:17:35.958Z,14.18
2022-09-30T10:22:41.228Z,14.27
2022-09-30T10:27:50.768Z,14.18
2022-09-30T10:32:54.587Z,14.44
2022-09-30T10:38:01.547Z,13.99
2022-09-30T10:43:05.329Z,14.60
2022-09-30T10:48:20.258Z,14.12
2022-09-30T10:53:27.570Z,13.69
2022-09-30T10:58:44.003Z,13.78
2022-09-30T11:03:58.790Z,13.81
2022-09-30T11:09:08.067Z,13.64
2022-09-30T11:14:31.044Z,14.62
2022-09-30T11:19:41.167Z,14.19
2022-09-30T11:24:49.268Z,14.50
2022-09-30T11:30:04.882Z,14.20
2022-09-30T11:35:24.997Z,14.38
2022-09-30T11:40:39.281Z,14.42
2022-09-30T11:46:00.417Z,14.22
2022-09-30T11:51:15.180Z,14.25
2022-09-30T11:56:33.912Z,14.55
2022-09-30T12:01:43.990Z,15.06
2022-09-30T12:06:52.002Z,14.95
2022-09-30T12:12:02.395Z,15.33
2022-09-30T12:17:19.833Z,14.98
2022-09-30T12:22:29.657Z,15.20
2022-09-30T12:27:41.490Z,15.27
2022-09-30T12:33:11.790Z,15.55
2022-09-30T12:38:31.388Z,15.18
2022-09-30T12:44:09.913Z,15.52
2022-09-30T12:49:19.973Z,14.94
2022-09-30T12:54:28.383Z,14.94
2022-09-30T12:59:36.688Z,15.77
2022-09-30T13:04:43.020Z,15.79
2022-09-30T13:10:24.661Z,15.53
2022-09-30T13:15:46.656Z,15.69
2022-09-30T13:20:56.498Z,15.43
2022-09-30T13:26:02.060Z,15.48
2022-09-30T13:31:19.333Z,15.28
2022-09-30T13:36:32.427Z,15.26
2022-09-30T13:41:39.635Z,15.06
2022-09-30T13:46:50.970Z,15.58
2022-09-30T13:51:56.599Z,15.15
2022-09-30T13:57:01.742Z,15.31
2022-09-30T14:02:35.025Z,15.45
2022-09-30T14:07:51.566Z,15.32
2022-09-30T14:13:09.152Z,15.36
2022-09-30T14:18:58.325Z,15.55
2022-09-30T14:24:04.576Z,15.40
2022-09-30T14:29:17.502Z,15.73
2022-09-30T14:34:25.676Z,15.81
2022-09-30T14:39:32.998Z,15.91
2022-09-30T14:44:38.180Z,15.57
2022-09-30T14:49:43.464Z,16.04
2022-09-30T14:54:48.714Z,15.86
2022-09-30T14:59:52.400Z,16.33
2022-09-30T15:05:01.296Z,16.27
2022-09-30T15:10:07.598Z,16.72
2022-09-30T15:15:25.960Z,16.73
2022-09-30T15:20:33.877Z,16.82
2022-09-30T15:25:38.780Z,16.44
2022-09-30T15:30:43.586Z,16.36
2022-09-30T15:35:49.132Z,16.62
2022-09-30T15:41:00.128Z,16.98
2022-09-30T15:46:27.238Z,15.87
2022-09-30T15:51:39.584Z,15.91
2022-09-30T15:56:44.519Z,15.29
2022-09-30T16:01:50.041Z,15.03
2022-09-30T16:06:57.922Z,14.75
2022-09-30T16:12:06.307Z,15.36
2022-09-30T16:17:18.824Z,14.39
2022-09-30T16:22:51.615Z,14.39
2022-09-30T16:27:59.265Z,13.95
2022-09-30T16:33:06.181Z,13.28
2022-09-30T16:38:15.263Z,13.92
2022-09-30T16:46:01.055Z,13.03
2022-09-30T16:51:07.194Z,13.56
2022-09-30T16:56:16.613Z,13.51
2022-09-30T17:01:23.411Z,13.13
2022-09-30T17:06:29.640Z,13.10
2022-09-30T17:11:36.596Z,13.36
2022-09-30T17:16:41.645Z,13.33
2022-09-30T17:21:45.696Z,13.04
2022-09-30T17:26:50.032Z,13.32
2022-09-30T17:31:55.705Z,13.70
2022-09-30T17:37:00.099Z,13.34
2022-09-30T17:42:21.547Z,13.60
2022-09-30T17:47:26.969Z,13.12
2022-09-30T17:52:34.354Z,13.23
2022-09-30T17:57:40.032Z,13.52
2022-09-30T18:02:45.585Z,13.30
2022-09-30T18:07:49.408Z,13.56
2022-09-30T18:12:54.786Z,13.77
2022-09-30T18:18:00.335Z,13.69
2022-09-30T18:23:04.049Z,13.14
2022-09-30T18:28:09.452Z,13.20
2022-09-30T18:33:17.454Z,13.09
2022-09-30T18:38:21.485Z,13.20
2022-09-30T18:43:25.147Z,12.89
2022-09-30T18:48:31.251Z,13.04
2022-09-30T18:53:35.482Z,12.90
2022-09-30T18:58:40.234Z,12.47
2022-09-30T19:03:45.358Z,12.49
2022-09-30T19:08:49.108Z,12.72
2022-09-30T19:13:55.949Z,12.82
2022-09-30T19:19:04.603Z,12.95
2022-09-30T19:24:10.527Z,13.35
2022-09-30T19:29:14.913Z,12.78
2022-09-30T19:34:31.124Z,12.49
2022-09-30T19:39:44.192Z,12.31
2022-09-30T19:44:49.443Z,13.34
2022-09-30T19:49:54.764Z,13.08
2022-09-30T19:55:10.462Z,13.97
2022-09-30T20:00:18.949Z,13.47
2022-09-30T20:05:24.335Z,12.88
2022-09-30T20:10:28.012Z,13.52
2022-09-30T20:15:49.014Z,14.00
2022-09-30T20:20:57.414Z,13.83
2022-09-30T20:26:02.242Z,14.25
2022-09-30T20:31:07.845Z,14.04
2022-09-30T20:36:13.525Z,14.42
2022-09-30T20:41:17.363Z,14.85
2022-09-30T20:46:21.817Z,13.56
2022-09-30T20:51:28.021Z,13.35
2022-09-30T20:56:49.674Z,13.70
2022-09-30T21:01:56.476Z,12.64
2022-09-30T21:07:01.975Z,12.60
2022-09-30T21:12:06.581Z,13.30
2022-09-30T21:17:11.423Z,13.08
2022-09-30T21:22:17.284Z,12.76
2022-09-30T21:27:20.824Z,13.89
2022-09-30T21:32:24.497Z,13.22
2022-09-30T21:37:29.900Z,12.55
2022-09-30T21:42:33.976Z,13.07
2022-09-30T21:47:37.658Z,12.93
2022-09-30T21:52:42.990Z,12.92
2022-09-30T21:57:47.538Z,13.78
2022-09-30T22:02:51.237Z,13.75
2022-09-30T22:07:59.552Z,13.92
2022-09-30T22:13:03.196Z,13.97
2022-09-30T22:18:10.444Z,14.15
2022-09-30T22:23:17.305Z,14.28
2022-09-30T22:28:21.134Z,13.54
2022-09-30T22:33:42.597Z,13.99
2022-09-30T22:38:48.604Z,13.18
2022-09-30T22:43:52.394Z,13.71
2022-09-30T22:48:57.428Z,12.72
2022-09-30T22:54:03.573Z,13.23
2022-09-30T22:59:08.728Z,14.05
2022-09-30T23:04:16.691Z,13.60
2022-09-30T23:09:22.380Z,12.70
2022-09-30T23:14:26.336Z,13.69
2022-09-30T23:19:30.531Z,13.02
2022-09-30T23:24:35.504Z,13.18
2022-09-30T23:29:39.201Z,13.48
2022-09-30T23:34:43.184Z,12.91
2022-09-30T23:39:48.458Z,13.47
2022-09-30T23:44:52.250Z,13.90
2022-09-30T23:49:56.542Z,14.16
2022-09-30T23:55:02.316Z,14.72
